Unionville, CT (06085)

7:07 AM EST on March 04, 2015 (GMT -0500)
ARTS BACKYARD Farmington | Change Station
CLOSE
Current Station
Personal Weather Station
Location: Unionville, CT
Elevation: 304 ft
Nearby Weather Stations

Elev 304 ft 41.75 °N, 72.88 °W | Updated 9 seconds ago

Rain
Rain
35.1 °F
Feels Like 35 °F
N
0.0
Wind Variable Wind from SW
Gusts 3.0 mph

Today
High -- | Low -- °F
--% Chance of Precip.
Yesterday
High -- | Low -- °F
Precip. -- in
6:22 AM 5:45 PM
Waxing Gibbous, 99% visible
Pressure 29.75 in
Visibility 4.0 miles
Clouds Overcast 9500 ft
Windchill 35 °F
Dew Point 33 °F
Humidity 93%
Rainfall 0.00 in
Snow Depth Not available.
UV 0 out of 12
Pollen .40 out of 12
Air Quality Not available.
Flu Activity Not available.
METAR KHFD 041153Z 14005KT 4SM -RA BR OVC095 01/00 A2975 RMK AO2 UPB30E32 SLP075 P0001 60002 70056 I1000 I6000 T00110000 10022 20011 52014

More Conditions Fewer Conditions

Pressure 29.75 in
Visibility 4.0 miles
Clouds Overcast 9500 ft
Windchill 35 °F
Dew Point 33 °F
Humidity 93%
Rainfall 0.00 in
Snow Depth Not available.
UV 0 out of 12
Pollen .40 out of 12
Air Quality Not available.
Flu Activity Not available.
METAR KHFD 041153Z 14005KT 4SM -RA BR OVC095 01/00 A2975 RMK AO2 UPB30E32 SLP075 P0001 60002 70056 I1000 I6000 T00110000 10022 20011 52014

More Conditions Fewer Conditions

10-Day Weather Forecast

Almanac

Astronomy

Mar. 04, 2015 Rise Set
Actual Time
Civil Twilight
Nautical Twilight
Astronomical Twilight
Moon
Length of Visible Light
Length of Day
Tomorrow will be .
, % of the Moon is Illuminated

Today's Extremes

State Highs State Lows

Community

WunderPhotos

Upload Photos

1,802,436 photos uploaded!

WunderBlogs® & News

Nearby

Air Quality

  Air Quality AQ Index Pollutant
Not available.

Snow Depth

Station Depth Elevation

Earthquake Activity

City Distance Mag. Time & Date
Minimum magnitude displayed is 2.5.

Coastal Water Temperatures

Place Temperature

Nearby Weather Stations